sensor_id;sensor_type;location;lat;lon;timestamp;P1;durP1;ratioP1;P2;durP2;ratioP2
59366;SDS011;45163;47.690;11.770;2022-12-10T00:01:09;19.80;;;13.10;;
59366;SDS011;45163;47.690;11.770;2022-12-10T00:03:37;20.33;;;13.07;;
59366;SDS011;45163;47.690;11.770;2022-12-10T00:06:04;18.00;;;12.47;;
59366;SDS011;45163;47.690;11.770;2022-12-10T00:08:32;20.93;;;13.37;;
59366;SDS011;45163;47.690;11.770;2022-12-10T00:11:01;23.07;;;13.70;;
59366;SDS011;45163;47.690;11.770;2022-12-10T00:13:29;19.80;;;12.87;;
59366;SDS011;45163;47.690;11.770;2022-12-10T00:15:55;21.67;;;13.03;;
59366;SDS011;45163;47.690;11.770;2022-12-10T00:18:21;20.87;;;13.07;;
59366;SDS011;45163;47.690;11.770;2022-12-10T00:20:47;20.57;;;13.57;;
59366;SDS011;45163;47.690;11.770;2022-12-10T00:23:13;21.43;;;13.63;;
59366;SDS011;45163;47.690;11.770;2022-12-10T00:25:39;20.87;;;13.27;;
59366;SDS011;45163;47.690;11.770;2022-12-10T00:28:05;21.53;;;12.93;;
59366;SDS011;45163;47.690;11.770;2022-12-10T00:30:32;22.13;;;13.57;;
59366;SDS011;45163;47.690;11.770;2022-12-10T00:32:59;21.20;;;13.57;;
59366;SDS011;45163;47.690;11.770;2022-12-10T00:35:25;24.10;;;13.23;;
59366;SDS011;45163;47.690;11.770;2022-12-10T00:37:51;22.70;;;14.00;;
59366;SDS011;45163;47.690;11.770;2022-12-10T00:40:17;21.20;;;13.23;;
59366;SDS011;45163;47.690;11.770;2022-12-10T00:42:43;19.20;;;12.67;;
59366;SDS011;45163;47.690;11.770;2022-12-10T00:45:09;22.23;;;13.20;;
59366;SDS011;45163;47.690;11.770;2022-12-10T00:47:35;21.90;;;12.93;;
59366;SDS011;45163;47.690;11.770;2022-12-10T00:50:01;20.93;;;12.50;;
59366;SDS011;45163;47.690;11.770;2022-12-10T00:52:27;21.87;;;12.87;;
59366;SDS011;45163;47.690;11.770;2022-12-10T00:54:53;24.17;;;13.30;;
59366;SDS011;45163;47.690;11.770;2022-12-10T00:57:19;26.47;;;14.97;;
59366;SDS011;45163;47.690;11.770;2022-12-10T00:59:45;22.17;;;12.77;;
59366;SDS011;45163;47.690;11.770;2022-12-10T01:02:10;19.83;;;13.33;;
59366;SDS011;45163;47.690;11.770;2022-12-10T01:04:36;20.13;;;13.03;;
59366;SDS011;45163;47.690;11.770;2022-12-10T01:07:02;21.03;;;13.03;;
59366;SDS011;45163;47.690;11.770;2022-12-10T01:09:29;22.27;;;13.57;;
59366;SDS011;45163;47.690;11.770;2022-12-10T01:11:56;19.47;;;12.37;;
59366;SDS011;45163;47.690;11.770;2022-12-10T01:14:28;22.90;;;14.10;;
59366;SDS011;45163;47.690;11.770;2022-12-10T01:17:00;18.97;;;12.93;;
59366;SDS011;45163;47.690;11.770;2022-12-10T01:19:30;20.80;;;12.67;;
59366;SDS011;45163;47.690;11.770;2022-12-10T01:21:58;20.13;;;12.57;;
59366;SDS011;45163;47.690;11.770;2022-12-10T01:24:25;20.57;;;14.30;;
59366;SDS011;45163;47.690;11.770;2022-12-10T01:26:52;20.47;;;13.17;;
59366;SDS011;45163;47.690;11.770;2022-12-10T01:29:20;21.73;;;13.87;;
59366;SDS011;45163;47.690;11.770;2022-12-10T01:31:49;21.73;;;12.97;;
59366;SDS011;45163;47.690;11.770;2022-12-10T01:34:17;18.73;;;13.20;;
59366;SDS011;45163;47.690;11.770;2022-12-10T01:36:44;21.93;;;12.90;;
59366;SDS011;45163;47.690;11.770;2022-12-10T01:39:14;20.67;;;13.37;;
59366;SDS011;45163;47.690;11.770;2022-12-10T01:41:43;20.33;;;13.60;;
59366;SDS011;45163;47.690;11.770;2022-12-10T01:46:38;21.60;;;13.87;;
59366;SDS011;45163;47.690;11.770;2022-12-10T01:49:07;20.37;;;13.37;;
59366;SDS011;45163;47.690;11.770;2022-12-10T01:51:36;22.07;;;13.57;;
59366;SDS011;45163;47.690;11.770;2022-12-10T01:54:06;20.80;;;13.47;;
59366;SDS011;45163;47.690;11.770;2022-12-10T01:56:40;23.17;;;13.07;;
59366;SDS011;45163;47.690;11.770;2022-12-10T01:59:08;20.50;;;12.67;;
59366;SDS011;45163;47.690;11.770;2022-12-10T02:09:45;23.27;;;13.30;;
59366;SDS011;45163;47.690;11.770;2022-12-10T02:12:20;19.37;;;12.10;;
59366;SDS011;45163;47.690;11.770;2022-12-10T02:22:35;16.80;;;11.73;;
59366;SDS011;45163;47.690;11.770;2022-12-10T02:25:07;16.67;;;11.57;;
59366;SDS011;45163;47.690;11.770;2022-12-10T02:27:40;16.13;;;11.07;;
59366;SDS011;45163;47.690;11.770;2022-12-10T02:30:08;19.50;;;12.40;;
59366;SDS011;45163;47.690;11.770;2022-12-10T02:32:36;23.20;;;12.77;;
59366;SDS011;45163;47.690;11.770;2022-12-10T02:35:07;16.50;;;11.77;;
59366;SDS011;45163;47.690;11.770;2022-12-10T02:37:51;16.27;;;10.77;;
59366;SDS011;45163;47.690;11.770;2022-12-10T02:40:26;17.23;;;12.10;;
59366;SDS011;45163;47.690;11.770;2022-12-10T02:42:58;18.93;;;12.17;;
59366;SDS011;45163;47.690;11.770;2022-12-10T02:45:25;19.27;;;12.57;;
59366;SDS011;45163;47.690;11.770;2022-12-10T02:47:54;18.13;;;11.17;;
59366;SDS011;45163;47.690;11.770;2022-12-10T02:50:23;15.53;;;10.67;;
59366;SDS011;45163;47.690;11.770;2022-12-10T02:52:49;17.10;;;11.47;;
59366;SDS011;45163;47.690;11.770;2022-12-10T02:55:16;14.07;;;10.97;;
59366;SDS011;45163;47.690;11.770;2022-12-10T03:00:31;13.43;;;9.93;;
59366;SDS011;45163;47.690;11.770;2022-12-10T03:08:34;14.27;;;10.33;;
59366;SDS011;45163;47.690;11.770;2022-12-10T03:11:17;13.30;;;9.80;;
59366;SDS011;45163;47.690;11.770;2022-12-10T03:16:18;13.60;;;10.17;;
59366;SDS011;45163;47.690;11.770;2022-12-10T03:18:47;15.70;;;10.00;;
59366;SDS011;45163;47.690;11.770;2022-12-10T03:21:17;13.53;;;9.40;;
59366;SDS011;45163;47.690;11.770;2022-12-10T03:23:45;14.87;;;10.27;;
59366;SDS011;45163;47.690;11.770;2022-12-10T03:26:12;14.07;;;10.00;;
59366;SDS011;45163;47.690;11.770;2022-12-10T03:28:41;13.73;;;9.70;;
59366;SDS011;45163;47.690;11.770;2022-12-10T03:31:12;13.30;;;10.00;;
59366;SDS011;45163;47.690;11.770;2022-12-10T03:33:39;16.37;;;10.13;;
59366;SDS011;45163;47.690;11.770;2022-12-10T03:36:06;13.90;;;9.40;;
59366;SDS011;45163;47.690;11.770;2022-12-10T03:38:34;13.40;;;9.50;;
59366;SDS011;45163;47.690;11.770;2022-12-10T03:41:01;14.90;;;10.47;;
59366;SDS011;45163;47.690;11.770;2022-12-10T03:43:27;15.33;;;10.50;;
59366;SDS011;45163;47.690;11.770;2022-12-10T03:45:53;14.80;;;10.43;;
59366;SDS011;45163;47.690;11.770;2022-12-10T03:48:19;15.47;;;10.63;;
59366;SDS011;45163;47.690;11.770;2022-12-10T03:50:45;14.57;;;10.43;;
59366;SDS011;45163;47.690;11.770;2022-12-10T03:53:11;13.20;;;10.20;;
59366;SDS011;45163;47.690;11.770;2022-12-10T03:55:37;15.70;;;10.20;;
59366;SDS011;45163;47.690;11.770;2022-12-10T03:58:03;14.70;;;10.67;;
59366;SDS011;45163;47.690;11.770;2022-12-10T04:00:29;16.97;;;10.83;;
59366;SDS011;45163;47.690;11.770;2022-12-10T04:02:55;13.80;;;10.27;;
59366;SDS011;45163;47.690;11.770;2022-12-10T04:05:21;15.23;;;10.57;;
59366;SDS011;45163;47.690;11.770;2022-12-10T04:07:47;14.37;;;10.77;;
59366;SDS011;45163;47.690;11.770;2022-12-10T04:10:13;13.83;;;10.40;;
59366;SDS011;45163;47.690;11.770;2022-12-10T04:12:39;16.40;;;10.90;;
59366;SDS011;45163;47.690;11.770;2022-12-10T04:15:05;13.27;;;9.47;;
59366;SDS011;45163;47.690;11.770;2022-12-10T04:17:51;12.47;;;9.73;;
59366;SDS011;45163;47.690;11.770;2022-12-10T04:20:18;13.77;;;9.77;;
59366;SDS011;45163;47.690;11.770;2022-12-10T04:23:02;14.70;;;10.13;;
59366;SDS011;45163;47.690;11.770;2022-12-10T04:25:47;17.27;;;11.53;;
59366;SDS011;45163;47.690;11.770;2022-12-10T04:28:45;13.90;;;9.47;;
59366;SDS011;45163;47.690;11.770;2022-12-10T04:31:11;16.27;;;10.87;;
59366;SDS011;45163;47.690;11.770;2022-12-10T04:33:37;16.07;;;10.73;;
59366;SDS011;45163;47.690;11.770;2022-12-10T04:36:03;15.53;;;10.30;;
59366;SDS011;45163;47.690;11.770;2022-12-10T04:38:29;13.87;;;9.87;;
59366;SDS011;45163;47.690;11.770;2022-12-10T04:40:55;14.40;;;9.73;;
59366;SDS011;45163;47.690;11.770;2022-12-10T04:43:21;13.67;;;10.03;;
59366;SDS011;45163;47.690;11.770;2022-12-10T04:45:47;13.63;;;9.73;;
59366;SDS011;45163;47.690;11.770;2022-12-10T04:48:13;16.27;;;10.20;;
59366;SDS011;45163;47.690;11.770;2022-12-10T04:50:39;13.63;;;10.07;;
59366;SDS011;45163;47.690;11.770;2022-12-10T04:53:05;14.33;;;10.43;;
59366;SDS011;45163;47.690;11.770;2022-12-10T04:55:30;15.27;;;10.20;;
59366;SDS011;45163;47.690;11.770;2022-12-10T04:57:56;13.53;;;9.87;;
59366;SDS011;45163;47.690;11.770;2022-12-10T05:00:22;14.63;;;9.93;;
59366;SDS011;45163;47.690;11.770;2022-12-10T05:02:48;13.83;;;10.47;;
59366;SDS011;45163;47.690;11.770;2022-12-10T05:05:15;13.97;;;9.73;;
59366;SDS011;45163;47.690;11.770;2022-12-10T05:07:41;15.27;;;10.20;;
59366;SDS011;45163;47.690;11.770;2022-12-10T05:10:07;15.20;;;10.03;;
59366;SDS011;45163;47.690;11.770;2022-12-10T05:12:33;15.43;;;10.40;;
59366;SDS011;45163;47.690;11.770;2022-12-10T05:14:59;16.30;;;11.00;;
59366;SDS011;45163;47.690;11.770;2022-12-10T05:17:25;14.80;;;10.20;;
59366;SDS011;45163;47.690;11.770;2022-12-10T05:19:51;20.13;;;12.53;;
59366;SDS011;45163;47.690;11.770;2022-12-10T05:22:17;18.10;;;12.60;;
59366;SDS011;45163;47.690;11.770;2022-12-10T05:25:18;15.97;;;10.73;;
59366;SDS011;45163;47.690;11.770;2022-12-10T05:27:44;15.30;;;10.13;;
59366;SDS011;45163;47.690;11.770;2022-12-10T05:30:10;15.13;;;10.80;;
59366;SDS011;45163;47.690;11.770;2022-12-10T05:32:36;15.43;;;10.43;;
59366;SDS011;45163;47.690;11.770;2022-12-10T05:35:03;15.20;;;10.50;;
59366;SDS011;45163;47.690;11.770;2022-12-10T05:37:30;14.60;;;10.40;;
59366;SDS011;45163;47.690;11.770;2022-12-10T05:39:56;17.23;;;10.13;;
59366;SDS011;45163;47.690;11.770;2022-12-10T05:42:22;15.17;;;10.80;;
59366;SDS011;45163;47.690;11.770;2022-12-10T05:44:48;14.43;;;10.20;;
59366;SDS011;45163;47.690;11.770;2022-12-10T05:47:14;15.17;;;10.57;;
59366;SDS011;45163;47.690;11.770;2022-12-10T05:49:40;15.07;;;9.97;;
59366;SDS011;45163;47.690;11.770;2022-12-10T05:52:05;14.57;;;10.27;;
59366;SDS011;45163;47.690;11.770;2022-12-10T05:54:31;13.33;;;9.87;;
59366;SDS011;45163;47.690;11.770;2022-12-10T05:56:57;14.43;;;11.10;;
59366;SDS011;45163;47.690;11.770;2022-12-10T05:59:23;17.43;;;12.03;;
59366;SDS011;45163;47.690;11.770;2022-12-10T06:01:49;17.10;;;11.80;;
59366;SDS011;45163;47.690;11.770;2022-12-10T06:04:15;16.90;;;11.73;;
59366;SDS011;45163;47.690;11.770;2022-12-10T06:06:41;17.30;;;11.73;;
59366;SDS011;45163;47.690;11.770;2022-12-10T06:09:10;19.27;;;12.70;;
59366;SDS011;45163;47.690;11.770;2022-12-10T06:11:37;19.33;;;12.33;;
59366;SDS011;45163;47.690;11.770;2022-12-10T06:14:03;19.90;;;13.27;;
59366;SDS011;45163;47.690;11.770;2022-12-10T06:16:29;19.70;;;12.63;;
59366;SDS011;45163;47.690;11.770;2022-12-10T06:18:55;21.60;;;13.70;;
59366;SDS011;45163;47.690;11.770;2022-12-10T06:21:22;20.77;;;13.30;;
59366;SDS011;45163;47.690;11.770;2022-12-10T06:23:49;20.33;;;12.70;;
59366;SDS011;45163;47.690;11.770;2022-12-10T06:26:19;22.07;;;14.20;;
59366;SDS011;45163;47.690;11.770;2022-12-10T06:28:48;22.93;;;14.63;;
59366;SDS011;45163;47.690;11.770;2022-12-10T06:31:15;20.63;;;14.00;;
59366;SDS011;45163;47.690;11.770;2022-12-10T06:33:42;20.17;;;13.17;;
59366;SDS011;45163;47.690;11.770;2022-12-10T06:36:09;23.20;;;13.90;;
59366;SDS011;45163;47.690;11.770;2022-12-10T06:38:36;20.57;;;13.77;;
59366;SDS011;45163;47.690;11.770;2022-12-10T06:41:06;23.13;;;13.43;;
59366;SDS011;45163;47.690;11.770;2022-12-10T06:43:34;21.70;;;14.03;;
59366;SDS011;45163;47.690;11.770;2022-12-10T06:46:07;21.17;;;14.00;;
59366;SDS011;45163;47.690;11.770;2022-12-10T06:48:35;20.17;;;13.17;;
59366;SDS011;45163;47.690;11.770;2022-12-10T06:51:01;22.10;;;13.83;;
59366;SDS011;45163;47.690;11.770;2022-12-10T06:53:28;20.23;;;13.40;;
59366;SDS011;45163;47.690;11.770;2022-12-10T06:55:56;21.07;;;13.27;;
59366;SDS011;45163;47.690;11.770;2022-12-10T06:58:23;21.03;;;13.53;;
59366;SDS011;45163;47.690;11.770;2022-12-10T07:00:49;20.23;;;13.70;;
59366;SDS011;45163;47.690;11.770;2022-12-10T07:03:15;20.10;;;13.43;;
59366;SDS011;45163;47.690;11.770;2022-12-10T07:05:41;22.10;;;14.07;;
59366;SDS011;45163;47.690;11.770;2022-12-10T07:08:07;21.13;;;13.57;;
59366;SDS011;45163;47.690;11.770;2022-12-10T07:10:33;25.23;;;13.23;;
59366;SDS011;45163;47.690;11.770;2022-12-10T07:12:59;17.53;;;12.33;;
59366;SDS011;45163;47.690;11.770;2022-12-10T07:15:25;19.67;;;12.80;;
59366;SDS011;45163;47.690;11.770;2022-12-10T07:17:53;20.47;;;13.37;;
59366;SDS011;45163;47.690;11.770;2022-12-10T07:20:19;20.63;;;14.10;;
59366;SDS011;45163;47.690;11.770;2022-12-10T07:22:45;22.60;;;13.97;;
59366;SDS011;45163;47.690;11.770;2022-12-10T07:25:11;22.60;;;14.60;;
59366;SDS011;45163;47.690;11.770;2022-12-10T07:27:37;21.47;;;13.73;;
59366;SDS011;45163;47.690;11.770;2022-12-10T07:30:03;21.03;;;13.87;;
59366;SDS011;45163;47.690;11.770;2022-12-10T07:32:30;18.57;;;12.67;;
59366;SDS011;45163;47.690;11.770;2022-12-10T07:34:55;22.17;;;14.23;;
59366;SDS011;45163;47.690;11.770;2022-12-10T07:37:21;20.43;;;13.60;;
59366;SDS011;45163;47.690;11.770;2022-12-10T07:39:48;21.00;;;13.63;;
59366;SDS011;45163;47.690;11.770;2022-12-10T07:42:13;22.00;;;14.00;;
59366;SDS011;45163;47.690;11.770;2022-12-10T07:44:39;22.43;;;14.73;;
59366;SDS011;45163;47.690;11.770;2022-12-10T07:47:05;26.47;;;15.90;;
59366;SDS011;45163;47.690;11.770;2022-12-10T07:49:31;21.53;;;14.53;;
59366;SDS011;45163;47.690;11.770;2022-12-10T07:51:57;25.60;;;15.13;;
59366;SDS011;45163;47.690;11.770;2022-12-10T07:54:23;24.20;;;14.03;;
59366;SDS011;45163;47.690;11.770;2022-12-10T07:56:49;23.20;;;14.50;;
59366;SDS011;45163;47.690;11.770;2022-12-10T07:59:15;24.00;;;14.50;;
59366;SDS011;45163;47.690;11.770;2022-12-10T08:01:41;23.67;;;15.33;;
59366;SDS011;45163;47.690;11.770;2022-12-10T08:04:07;23.53;;;14.67;;
59366;SDS011;45163;47.690;11.770;2022-12-10T08:06:33;23.27;;;14.50;;
59366;SDS011;45163;47.690;11.770;2022-12-10T08:09:00;23.00;;;15.07;;
59366;SDS011;45163;47.690;11.770;2022-12-10T08:11:27;21.57;;;14.27;;
59366;SDS011;45163;47.690;11.770;2022-12-10T08:13:53;23.47;;;14.90;;
59366;SDS011;45163;47.690;11.770;2022-12-10T08:16:21;22.07;;;15.17;;
59366;SDS011;45163;47.690;11.770;2022-12-10T08:18:48;22.27;;;14.20;;
59366;SDS011;45163;47.690;11.770;2022-12-10T08:21:16;21.60;;;14.33;;
59366;SDS011;45163;47.690;11.770;2022-12-10T08:23:43;24.87;;;14.70;;
59366;SDS011;45163;47.690;11.770;2022-12-10T08:26:10;25.90;;;15.63;;
59366;SDS011;45163;47.690;11.770;2022-12-10T08:28:38;21.43;;;14.60;;
59366;SDS011;45163;47.690;11.770;2022-12-10T08:31:05;23.43;;;14.37;;
59366;SDS011;45163;47.690;11.770;2022-12-10T08:33:33;22.27;;;14.67;;
59366;SDS011;45163;47.690;11.770;2022-12-10T08:36:00;21.87;;;15.37;;
59366;SDS011;45163;47.690;11.770;2022-12-10T08:38:27;21.47;;;14.90;;
59366;SDS011;45163;47.690;11.770;2022-12-10T08:40:53;21.53;;;14.37;;
59366;SDS011;45163;47.690;11.770;2022-12-10T08:43:19;21.33;;;14.10;;
59366;SDS011;45163;47.690;11.770;2022-12-10T08:45:45;23.30;;;14.83;;
59366;SDS011;45163;47.690;11.770;2022-12-10T08:48:11;23.30;;;14.57;;
59366;SDS011;45163;47.690;11.770;2022-12-10T08:50:37;22.10;;;13.93;;
59366;SDS011;45163;47.690;11.770;2022-12-10T08:53:03;22.03;;;14.70;;
59366;SDS011;45163;47.690;11.770;2022-12-10T08:55:30;22.93;;;14.63;;
59366;SDS011;45163;47.690;11.770;2022-12-10T08:57:56;23.83;;;14.93;;
59366;SDS011;45163;47.690;11.770;2022-12-10T09:00:23;22.83;;;14.80;;
59366;SDS011;45163;47.690;11.770;2022-12-10T09:02:50;21.93;;;14.90;;
59366;SDS011;45163;47.690;11.770;2022-12-10T09:05:16;22.37;;;15.03;;
59366;SDS011;45163;47.690;11.770;2022-12-10T09:07:42;23.00;;;15.67;;
59366;SDS011;45163;47.690;11.770;2022-12-10T09:10:09;34.13;;;23.20;;
59366;SDS011;45163;47.690;11.770;2022-12-10T09:12:37;28.77;;;17.77;;
59366;SDS011;45163;47.690;11.770;2022-12-10T09:15:04;38.33;;;22.73;;
59366;SDS011;45163;47.690;11.770;2022-12-10T09:17:30;29.60;;;19.23;;
59366;SDS011;45163;47.690;11.770;2022-12-10T09:19:56;24.43;;;16.73;;
59366;SDS011;45163;47.690;11.770;2022-12-10T09:22:22;22.00;;;15.80;;
59366;SDS011;45163;47.690;11.770;2022-12-10T09:24:48;22.23;;;15.20;;
59366;SDS011;45163;47.690;11.770;2022-12-10T09:27:14;23.90;;;14.37;;
59366;SDS011;45163;47.690;11.770;2022-12-10T09:29:40;21.40;;;14.73;;
59366;SDS011;45163;47.690;11.770;2022-12-10T09:32:06;23.57;;;15.47;;
59366;SDS011;45163;47.690;11.770;2022-12-10T09:34:32;23.97;;;15.80;;
59366;SDS011;45163;47.690;11.770;2022-12-10T09:36:58;22.53;;;14.60;;
59366;SDS011;45163;47.690;11.770;2022-12-10T09:39:24;22.77;;;15.03;;
59366;SDS011;45163;47.690;11.770;2022-12-10T09:41:54;21.33;;;14.63;;
59366;SDS011;45163;47.690;11.770;2022-12-10T09:47:03;21.97;;;14.93;;
59366;SDS011;45163;47.690;11.770;2022-12-10T09:49:37;23.03;;;15.50;;
59366;SDS011;45163;47.690;11.770;2022-12-10T09:52:10;20.20;;;13.80;;
59366;SDS011;45163;47.690;11.770;2022-12-10T09:57:21;21.03;;;13.77;;
59366;SDS011;45163;47.690;11.770;2022-12-10T09:59:54;20.53;;;13.17;;
59366;SDS011;45163;47.690;11.770;2022-12-10T10:04:59;20.30;;;13.43;;
59366;SDS011;45163;47.690;11.770;2022-12-10T10:07:43;19.30;;;13.23;;
59366;SDS011;45163;47.690;11.770;2022-12-10T10:10:32;19.67;;;12.80;;
59366;SDS011;45163;47.690;11.770;2022-12-10T10:13:11;21.37;;;13.67;;
59366;SDS011;45163;47.690;11.770;2022-12-10T10:15:44;21.07;;;14.03;;
59366;SDS011;45163;47.690;11.770;2022-12-10T10:20:49;19.47;;;12.17;;
59366;SDS011;45163;47.690;11.770;2022-12-10T10:23:15;19.67;;;13.53;;
59366;SDS011;45163;47.690;11.770;2022-12-10T10:25:42;17.67;;;11.73;;
59366;SDS011;45163;47.690;11.770;2022-12-10T10:28:10;23.10;;;13.90;;
59366;SDS011;45163;47.690;11.770;2022-12-10T10:30:39;17.37;;;11.63;;
59366;SDS011;45163;47.690;11.770;2022-12-10T10:33:10;17.27;;;11.17;;
59366;SDS011;45163;47.690;11.770;2022-12-10T10:35:47;15.60;;;10.50;;
59366;SDS011;45163;47.690;11.770;2022-12-10T10:38:27;15.73;;;10.23;;
59366;SDS011;45163;47.690;11.770;2022-12-10T10:40:55;14.00;;;10.07;;
59366;SDS011;45163;47.690;11.770;2022-12-10T10:43:24;14.67;;;9.63;;
59366;SDS011;45163;47.690;11.770;2022-12-10T10:46:11;15.03;;;10.00;;
59366;SDS011;45163;47.690;11.770;2022-12-10T10:48:39;13.23;;;9.47;;
59366;SDS011;45163;47.690;11.770;2022-12-10T10:53:42;12.70;;;9.00;;
59366;SDS011;45163;47.690;11.770;2022-12-10T11:01:25;14.03;;;8.07;;
59366;SDS011;45163;47.690;11.770;2022-12-10T11:04:12;10.73;;;8.47;;
59366;SDS011;45163;47.690;11.770;2022-12-10T11:06:40;15.03;;;8.77;;
59366;SDS011;45163;47.690;11.770;2022-12-10T11:09:07;10.77;;;7.93;;
59366;SDS011;45163;47.690;11.770;2022-12-10T11:11:39;11.97;;;8.03;;
59366;SDS011;45163;47.690;11.770;2022-12-10T11:19:44;10.00;;;7.20;;
59366;SDS011;45163;47.690;11.770;2022-12-10T11:22:38;10.47;;;7.90;;
59366;SDS011;45163;47.690;11.770;2022-12-10T11:25:44;9.87;;;7.77;;
59366;SDS011;45163;47.690;11.770;2022-12-10T11:35:03;10.10;;;7.73;;
59366;SDS011;45163;47.690;11.770;2022-12-10T11:37:49;11.37;;;7.83;;
59366;SDS011;45163;47.690;11.770;2022-12-10T11:40:40;10.43;;;7.13;;
59366;SDS011;45163;47.690;11.770;2022-12-10T11:43:15;10.07;;;7.30;;
59366;SDS011;45163;47.690;11.770;2022-12-10T11:57:22;12.30;;;8.10;;
59366;SDS011;45163;47.690;11.770;2022-12-10T12:11:01;11.67;;;6.73;;
59366;SDS011;45163;47.690;11.770;2022-12-10T12:16:30;9.57;;;6.50;;
59366;SDS011;45163;47.690;11.770;2022-12-10T12:19:05;9.50;;;6.30;;
59366;SDS011;45163;47.690;11.770;2022-12-10T12:21:41;10.20;;;6.37;;
59366;SDS011;45163;47.690;11.770;2022-12-10T12:26:45;10.07;;;6.80;;
59366;SDS011;45163;47.690;11.770;2022-12-10T12:29:17;9.63;;;7.17;;
59366;SDS011;45163;47.690;11.770;2022-12-10T12:31:52;8.37;;;6.37;;
59366;SDS011;45163;47.690;11.770;2022-12-10T12:37:18;9.40;;;7.23;;
59366;SDS011;45163;47.690;11.770;2022-12-10T12:39:54;8.97;;;6.23;;
59366;SDS011;45163;47.690;11.770;2022-12-10T12:43:14;7.90;;;5.77;;
59366;SDS011;45163;47.690;11.770;2022-12-10T12:45:41;8.33;;;6.70;;
59366;SDS011;45163;47.690;11.770;2022-12-10T12:48:14;9.87;;;7.27;;
59366;SDS011;45163;47.690;11.770;2022-12-10T12:50:49;10.40;;;6.93;;
59366;SDS011;45163;47.690;11.770;2022-12-10T12:53:23;10.83;;;7.10;;
59366;SDS011;45163;47.690;11.770;2022-12-10T12:55:55;11.67;;;7.70;;
59366;SDS011;45163;47.690;11.770;2022-12-10T12:59:33;11.37;;;6.83;;
59366;SDS011;45163;47.690;11.770;2022-12-10T13:01:53;9.00;;;6.10;;
59366;SDS011;45163;47.690;11.770;2022-12-10T13:04:24;10.07;;;7.17;;
59366;SDS011;45163;47.690;11.770;2022-12-10T13:09:52;10.43;;;6.70;;
59366;SDS011;45163;47.690;11.770;2022-12-10T13:12:52;8.67;;;6.03;;
59366;SDS011;45163;47.690;11.770;2022-12-10T13:23:02;7.30;;;5.70;;
59366;SDS011;45163;47.690;11.770;2022-12-10T13:25:38;6.63;;;5.40;;
59366;SDS011;45163;47.690;11.770;2022-12-10T13:37:02;15.40;;;9.13;;
59366;SDS011;45163;47.690;11.770;2022-12-10T13:39:35;9.43;;;6.53;;
59366;SDS011;45163;47.690;11.770;2022-12-10T13:50:14;10.47;;;7.13;;
59366;SDS011;45163;47.690;11.770;2022-12-10T14:01:22;15.27;;;9.93;;
59366;SDS011;45163;47.690;11.770;2022-12-10T14:06:57;14.50;;;9.57;;
59366;SDS011;45163;47.690;11.770;2022-12-10T14:09:33;11.70;;;8.03;;
59366;SDS011;45163;47.690;11.770;2022-12-10T14:12:25;11.90;;;8.50;;
59366;SDS011;45163;47.690;11.770;2022-12-10T14:14:57;15.17;;;9.87;;
59366;SDS011;45163;47.690;11.770;2022-12-10T14:17:32;14.00;;;9.43;;
59366;SDS011;45163;47.690;11.770;2022-12-10T14:20:03;12.73;;;8.33;;
59366;SDS011;45163;47.690;11.770;2022-12-10T14:22:37;11.80;;;7.83;;
59366;SDS011;45163;47.690;11.770;2022-12-10T14:25:12;10.40;;;7.47;;
59366;SDS011;45163;47.690;11.770;2022-12-10T14:27:41;15.83;;;8.73;;
59366;SDS011;45163;47.690;11.770;2022-12-10T14:32:47;10.77;;;7.77;;
59366;SDS011;45163;47.690;11.770;2022-12-10T14:35:19;12.63;;;8.80;;
59366;SDS011;45163;47.690;11.770;2022-12-10T14:37:48;17.77;;;11.53;;
59366;SDS011;45163;47.690;11.770;2022-12-10T14:40:21;21.40;;;12.80;;
59366;SDS011;45163;47.690;11.770;2022-12-10T14:42:50;16.17;;;9.73;;
59366;SDS011;45163;47.690;11.770;2022-12-10T14:45:28;18.50;;;11.10;;
59366;SDS011;45163;47.690;11.770;2022-12-10T14:48:03;22.10;;;13.07;;
59366;SDS011;45163;47.690;11.770;2022-12-10T14:50:32;25.03;;;14.10;;
59366;SDS011;45163;47.690;11.770;2022-12-10T14:53:00;26.03;;;14.07;;
59366;SDS011;45163;47.690;11.770;2022-12-10T14:55:26;19.03;;;11.53;;
59366;SDS011;45163;47.690;11.770;2022-12-10T14:57:59;18.77;;;12.17;;
59366;SDS011;45163;47.690;11.770;2022-12-10T15:00:28;12.17;;;8.33;;
59366;SDS011;45163;47.690;11.770;2022-12-10T15:02:56;22.37;;;15.00;;
59366;SDS011;45163;47.690;11.770;2022-12-10T15:05:27;30.30;;;18.90;;
59366;SDS011;45163;47.690;11.770;2022-12-10T15:08:00;15.57;;;10.53;;
59366;SDS011;45163;47.690;11.770;2022-12-10T15:13:05;15.37;;;9.80;;
59366;SDS011;45163;47.690;11.770;2022-12-10T15:23:12;18.23;;;11.97;;
59366;SDS011;45163;47.690;11.770;2022-12-10T15:25:42;16.90;;;11.27;;
59366;SDS011;45163;47.690;11.770;2022-12-10T15:28:21;16.53;;;11.03;;
59366;SDS011;45163;47.690;11.770;2022-12-10T15:30:48;18.57;;;11.17;;
59366;SDS011;45163;47.690;11.770;2022-12-10T15:33:27;15.93;;;10.83;;
59366;SDS011;45163;47.690;11.770;2022-12-10T15:35:57;22.37;;;12.20;;
59366;SDS011;45163;47.690;11.770;2022-12-10T15:38:24;19.87;;;11.90;;
59366;SDS011;45163;47.690;11.770;2022-12-10T15:40:56;18.40;;;11.20;;
59366;SDS011;45163;47.690;11.770;2022-12-10T15:45:56;19.97;;;12.23;;
59366;SDS011;45163;47.690;11.770;2022-12-10T15:48:24;18.73;;;11.93;;
59366;SDS011;45163;47.690;11.770;2022-12-10T15:50:52;21.03;;;12.80;;
59366;SDS011;45163;47.690;11.770;2022-12-10T15:53:29;18.63;;;11.33;;
59366;SDS011;45163;47.690;11.770;2022-12-10T15:56:02;19.33;;;11.97;;
59366;SDS011;45163;47.690;11.770;2022-12-10T15:58:28;16.83;;;10.90;;
59366;SDS011;45163;47.690;11.770;2022-12-10T16:00:54;16.40;;;10.77;;
59366;SDS011;45163;47.690;11.770;2022-12-10T16:03:20;19.87;;;11.93;;
59366;SDS011;45163;47.690;11.770;2022-12-10T16:05:47;17.30;;;11.33;;
59366;SDS011;45163;47.690;11.770;2022-12-10T16:08:32;20.70;;;12.67;;
59366;SDS011;45163;47.690;11.770;2022-12-10T16:11:02;17.87;;;11.43;;
59366;SDS011;45163;47.690;11.770;2022-12-10T16:13:37;14.57;;;10.53;;
59366;SDS011;45163;47.690;11.770;2022-12-10T16:16:09;17.70;;;11.70;;
59366;SDS011;45163;47.690;11.770;2022-12-10T16:18:36;17.20;;;10.27;;
59366;SDS011;45163;47.690;11.770;2022-12-10T16:21:03;18.27;;;11.40;;
59366;SDS011;45163;47.690;11.770;2022-12-10T16:23:31;18.27;;;11.40;;
59366;SDS011;45163;47.690;11.770;2022-12-10T16:25:57;18.40;;;12.23;;
59366;SDS011;45163;47.690;11.770;2022-12-10T16:28:24;21.77;;;13.77;;
59366;SDS011;45163;47.690;11.770;2022-12-10T16:30:52;16.73;;;10.83;;
59366;SDS011;45163;47.690;11.770;2022-12-10T16:33:20;16.43;;;10.67;;
59366;SDS011;45163;47.690;11.770;2022-12-10T16:35:48;17.10;;;10.57;;
59366;SDS011;45163;47.690;11.770;2022-12-10T16:38:15;17.67;;;11.30;;
59366;SDS011;45163;47.690;11.770;2022-12-10T16:40:43;13.37;;;9.30;;
59366;SDS011;45163;47.690;11.770;2022-12-10T16:43:17;15.13;;;9.77;;
59366;SDS011;45163;47.690;11.770;2022-12-10T16:45:47;14.90;;;9.80;;
59366;SDS011;45163;47.690;11.770;2022-12-10T16:48:14;13.63;;;9.47;;
59366;SDS011;45163;47.690;11.770;2022-12-10T16:50:40;15.43;;;9.90;;